createdAt,value
2018-10-11T00:00:07.413Z,36.0
2018-10-11T00:01:08.147Z,37.4
2018-10-11T00:02:09.130Z,31.2
2018-10-11T00:03:09.846Z,36.8
2018-10-11T00:04:10.579Z,34.6
2018-10-11T00:05:11.361Z,35.6
2018-10-11T00:06:12.090Z,34.3
2018-10-11T00:07:12.809Z,34.2
2018-10-11T00:08:13.532Z,35.6
2018-10-11T00:09:14.269Z,36.5
2018-10-11T00:10:15.066Z,36.3
2018-10-11T00:11:15.788Z,35.2
2018-10-11T00:12:16.510Z,29.9
2018-10-11T00:13:17.235Z,35.6
2018-10-11T00:14:18.217Z,32.1
2018-10-11T00:15:18.984Z,35.5
2018-10-11T00:16:19.708Z,31.9
2018-10-11T00:17:20.690Z,32.6
2018-10-11T00:18:21.411Z,35.7
2018-10-11T00:19:22.131Z,32.9
2018-10-11T00:20:22.893Z,32.7
2018-10-11T00:21:23.605Z,36.2
2018-10-11T00:22:24.329Z,32.7
2018-10-11T00:23:25.044Z,32.2
2018-10-11T00:24:25.790Z,38.0
2018-10-11T00:25:26.506Z,33.3
2018-10-11T00:26:27.235Z,35.2
2018-10-11T00:27:28.204Z,39.0
2018-10-11T00:28:28.917Z,38.7
2018-10-11T00:29:29.650Z,35.1
2018-10-11T00:30:30.411Z,39.3
2018-10-11T00:31:31.101Z,34.0
2018-10-11T00:32:32.114Z,38.4
2018-10-11T00:33:32.838Z,37.0
2018-10-11T00:34:33.805Z,38.3
2018-10-11T00:35:34.534Z,41.2
2018-10-11T00:36:35.505Z,39.6
2018-10-11T00:37:36.219Z,35.7
2018-10-11T00:38:36.935Z,37.9
2018-10-11T00:39:38.233Z,43.9
2018-10-11T00:40:38.941Z,40.7
2018-10-11T00:41:39.670Z,40.8
2018-10-11T00:42:40.390Z,35.6
2018-10-11T00:43:41.113Z,41.5
2018-10-11T00:44:41.829Z,38.2
2018-10-11T00:45:42.562Z,42.6
2018-10-11T00:46:43.285Z,41.4
2018-10-11T00:47:44.004Z,38.9
2018-10-11T00:48:44.722Z,46.7
2018-10-11T00:49:45.448Z,41.2
2018-10-11T00:50:46.170Z,40.9
2018-10-11T00:51:46.893Z,40.7
2018-10-11T00:52:47.615Z,44.1
2018-10-11T00:53:48.331Z,49.3
2018-10-11T00:54:49.063Z,50.9
2018-10-11T00:55:49.835Z,44.0
2018-10-11T00:56:50.559Z,46.1
2018-10-11T00:57:51.558Z,40.2
2018-10-11T00:58:52.284Z,44.8
2018-10-11T00:59:53.000Z,42.9
2018-10-11T01:00:53.730Z,45.8
2018-10-11T01:01:54.453Z,46.8
2018-10-11T01:02:55.161Z,46.0
2018-10-11T01:03:55.889Z,48.5
2018-10-11T01:04:56.604Z,45.0
2018-10-11T01:05:57.583Z,43.0
2018-10-11T01:06:58.304Z,43.8
2018-10-11T01:07:59.026Z,43.0
2018-10-11T01:08:59.746Z,51.7
2018-10-11T01:10:00.533Z,52.3
2018-10-11T01:11:01.189Z,49.7
2018-10-11T01:12:01.954Z,54.0
2018-10-11T01:13:02.682Z,50.6
2018-10-11T01:14:03.422Z,54.6
2018-10-11T01:15:04.142Z,52.0
2018-10-11T01:16:04.867Z,51.1
2018-10-11T01:17:05.582Z,50.1
2018-10-11T01:18:06.348Z,49.8
2018-10-11T01:19:07.077Z,60.0
2018-10-11T01:20:08.060Z,54.5
2018-10-11T01:21:08.772Z,55.5
2018-10-11T01:22:09.493Z,51.9
2018-10-11T01:23:10.204Z,52.5
2018-10-11T01:24:10.914Z,52.4
2018-10-11T01:25:11.630Z,54.3
2018-10-11T01:26:12.734Z,57.0
2018-10-11T01:27:13.442Z,51.4
2018-10-11T01:28:14.161Z,54.5
2018-10-11T01:29:14.882Z,53.1
2018-10-11T01:30:15.852Z,55.0
2018-10-11T01:31:16.578Z,54.8
2018-10-11T01:32:17.314Z,53.5
2018-10-11T01:33:18.075Z,52.1
2018-10-11T01:34:18.795Z,56.1
2018-10-11T01:35:19.513Z,56.4
2018-10-11T01:36:20.502Z,59.1
2018-10-11T01:37:21.224Z,52.9
2018-10-11T01:38:21.957Z,59.6
2018-10-11T01:39:22.677Z,60.5
2018-10-11T01:40:23.408Z,55.9
2018-10-11T01:41:24.152Z,50.8
2018-10-11T01:42:24.869Z,58.0
2018-10-11T01:43:25.598Z,59.2
2018-10-11T01:44:26.323Z,54.6
2018-10-11T01:45:27.046Z,55.9
2018-10-11T01:46:27.770Z,56.1
2018-10-11T01:47:28.487Z,54.3
2018-10-11T01:48:29.209Z,62.2
2018-10-11T01:49:29.936Z,55.1
2018-10-11T01:50:30.673Z,58.5
2018-10-11T01:51:31.396Z,59.7
2018-10-11T01:52:32.108Z,62.1
2018-10-11T01:53:32.817Z,54.4
2018-10-11T01:54:33.540Z,56.7
2018-10-11T01:55:34.259Z,55.7
2018-10-11T01:56:35.023Z,59.2
2018-10-11T01:57:35.704Z,61.4
2018-10-11T01:58:36.428Z,60.5
2018-10-11T01:59:37.158Z,62.5
2018-10-11T02:00:38.140Z,67.6
2018-10-11T02:01:38.857Z,60.9
2018-10-11T02:02:39.589Z,62.5
2018-10-11T02:03:40.307Z,57.3
2018-10-11T02:04:41.031Z,62.9
2018-10-11T02:05:41.761Z,63.7
2018-10-11T02:06:42.487Z,61.2
2018-10-11T02:07:43.208Z,60.7
2018-10-11T02:08:44.211Z,61.6
2018-10-11T02:09:44.960Z,58.6
2018-10-11T02:10:45.689Z,59.7
2018-10-11T02:11:46.401Z,60.6
2018-10-11T02:12:47.126Z,58.5
2018-10-11T02:13:47.838Z,61.0
2018-10-11T02:14:48.627Z,58.7
2018-10-11T02:15:49.349Z,60.9
2018-10-11T02:16:50.086Z,63.6
2018-10-11T02:17:50.799Z,61.1
2018-10-11T02:18:51.517Z,69.6
2018-10-11T02:19:52.318Z,65.6
2018-10-11T02:20:53.044Z,61.3
2018-10-11T02:21:53.768Z,69.5
2018-10-11T02:22:54.479Z,62.7
2018-10-11T02:23:55.201Z,65.8
2018-10-11T02:24:55.976Z,64.0
2018-10-11T02:25:56.946Z,60.7
2018-10-11T02:26:57.671Z,64.9
2018-10-11T02:27:58.385Z,68.2
2018-10-11T02:28:59.138Z,66.6
2018-10-11T02:29:59.862Z,65.7
2018-10-11T02:31:00.844Z,66.3
2018-10-11T02:32:01.669Z,65.2
2018-10-11T02:33:02.333Z,65.9
2018-10-11T02:34:03.053Z,66.4
2018-10-11T02:35:03.803Z,68.2
2018-10-11T02:36:04.521Z,74.0
2018-10-11T02:37:05.551Z,67.2
2018-10-11T02:38:06.266Z,72.0
2018-10-11T02:39:06.991Z,69.7
2018-10-11T02:40:07.988Z,66.4
2018-10-11T02:41:08.698Z,73.1
2018-10-11T02:42:09.455Z,69.2
2018-10-11T02:43:10.436Z,69.3
2018-10-11T02:44:11.156Z,70.3
2018-10-11T02:45:11.876Z,68.0
2018-10-11T02:46:12.602Z,65.6
2018-10-11T02:47:13.633Z,71.1
2018-10-11T02:48:14.347Z,71.2
2018-10-11T02:49:15.071Z,64.5
2018-10-11T02:50:16.047Z,73.7
2018-10-11T02:51:16.757Z,68.1
2018-10-11T02:52:17.484Z,67.5
2018-10-11T02:53:18.203Z,69.0
2018-10-11T02:54:18.923Z,69.1
2018-10-11T02:55:19.646Z,65.0
2018-10-11T02:56:20.362Z,63.5
2018-10-11T02:57:21.091Z,70.3
2018-10-11T02:58:22.075Z,89.5
2018-10-11T02:59:22.790Z,72.8
2018-10-11T03:00:23.510Z,71.2
2018-10-11T03:01:24.238Z,73.7
2018-10-11T03:02:24.955Z,72.1
2018-10-11T03:03:25.672Z,71.2
2018-10-11T03:04:26.393Z,70.1
2018-10-11T03:05:27.111Z,79.6
2018-10-11T03:06:27.843Z,71.1
2018-10-11T03:07:28.571Z,73.4
2018-10-11T03:08:29.292Z,72.9
2018-10-11T03:09:30.026Z,73.7
2018-10-11T03:10:30.749Z,73.0
2018-10-11T03:11:31.480Z,76.2
2018-10-11T03:12:32.200Z,74.1
2018-10-11T03:13:32.919Z,73.9
2018-10-11T03:14:33.647Z,80.4
2018-10-11T03:15:34.363Z,71.9
2018-10-11T03:16:35.083Z,78.4
2018-10-11T03:17:35.810Z,75.2
2018-10-11T03:18:36.535Z,75.2
2018-10-11T03:19:37.264Z,74.2
2018-10-11T03:20:37.986Z,71.8
2018-10-11T03:21:38.711Z,76.5
2018-10-11T03:22:39.440Z,79.5
2018-10-11T03:23:40.155Z,73.1
2018-10-11T03:24:40.885Z,74.8
2018-10-11T03:25:41.600Z,83.5
2018-10-11T03:26:42.327Z,79.3
2018-10-11T03:27:43.039Z,78.4
2018-10-11T03:28:43.758Z,74.7
2018-10-11T03:29:44.476Z,86.2
2018-10-11T03:30:45.214Z,70.6
2018-10-11T03:31:45.925Z,77.8
2018-10-11T03:32:46.660Z,73.0
2018-10-11T03:33:47.377Z,79.6
2018-10-11T03:34:48.094Z,70.2
2018-10-11T03:35:48.822Z,71.7
2018-10-11T03:36:49.546Z,76.7
2018-10-11T03:37:50.270Z,76.4
2018-10-11T03:38:51.047Z,78.1
2018-10-11T03:39:51.759Z,86.9
2018-10-11T03:40:52.497Z,85.7
2018-10-11T03:41:53.214Z,88.7
2018-10-11T03:42:53.937Z,85.7
2018-10-11T03:43:54.920Z,96.0
2018-10-11T03:44:55.642Z,86.3
2018-10-11T03:45:56.358Z,90.4
2018-10-11T03:46:57.077Z,88.4
2018-10-11T03:47:57.801Z,88.8
2018-10-11T03:48:58.515Z,99.6
2018-10-11T03:49:59.292Z,86.3
2018-10-11T03:51:00.009Z,87.2
2018-10-11T03:52:00.728Z,85.4
2018-10-11T03:53:01.450Z,85.8
2018-10-11T03:54:02.180Z,86.2
2018-10-11T03:55:02.948Z,90.7
2018-10-11T03:56:03.667Z,86.3
2018-10-11T03:57:04.381Z,86.3
2018-10-11T03:58:05.122Z,95.6
2018-10-11T03:59:05.833Z,94.9
2018-10-11T04:00:06.610Z,89.8
2018-10-11T04:01:07.337Z,84.4
2018-10-11T04:02:08.081Z,91.1
2018-10-11T04:03:08.800Z,87.7
2018-10-11T04:04:09.529Z,92.2
2018-10-11T04:05:10.245Z,95.3
2018-10-11T04:06:11.219Z,83.7
2018-10-11T04:07:11.932Z,88.1
2018-10-11T04:08:12.652Z,85.6
2018-10-11T04:09:13.378Z,83.5
2018-10-11T04:10:14.374Z,95.4
2018-10-11T04:11:15.233Z,91.1
2018-10-11T04:12:15.964Z,94.3
2018-10-11T04:13:16.685Z,95.7
2018-10-11T04:14:17.403Z,95.7
2018-10-11T04:15:18.142Z,85.6
2018-10-11T04:16:18.861Z,96.3
2018-10-11T04:17:19.584Z,91.1
2018-10-11T04:18:20.304Z,90.9
2018-10-11T04:19:21.022Z,90.4
2018-10-11T04:20:21.748Z,83.4
2018-10-11T04:21:22.465Z,85.8
2018-10-11T04:22:23.200Z,92.4
2018-10-11T04:23:23.924Z,88.8
2018-10-11T04:24:24.644Z,92.2
2018-10-11T04:25:25.375Z,89.4
2018-10-11T04:26:26.094Z,91.9
2018-10-11T04:27:26.831Z,89.1
2018-10-11T04:28:27.551Z,90.9
2018-10-11T04:29:28.272Z,91.0
2018-10-11T04:30:28.993Z,98.2
2018-10-11T04:31:29.958Z,95.4
2018-10-11T04:32:30.685Z,93.0
2018-10-11T04:33:31.397Z,88.4
2018-10-11T04:34:32.106Z,100.0
2018-10-11T04:35:32.843Z,93.8
2018-10-11T04:36:33.557Z,98.6
2018-10-11T04:37:34.275Z,100.6
2018-10-11T04:38:34.994Z,93.9
2018-10-11T04:39:35.980Z,84.3
2018-10-11T04:40:36.712Z,92.3
2018-10-11T04:41:37.425Z,110.3
2018-10-11T04:42:38.207Z,90.2
2018-10-11T04:43:38.871Z,102.0
2018-10-11T04:44:39.612Z,95.2
2018-10-11T04:45:40.459Z,96.8
2018-10-11T04:46:41.691Z,93.0
2018-10-11T04:47:42.411Z,101.6
2018-10-11T04:48:43.259Z,105.0
2018-10-11T04:49:43.994Z,104.3
2018-10-11T04:50:44.762Z,101.3
2018-10-11T04:51:45.489Z,94.4
2018-10-11T04:52:46.212Z,108.6
2018-10-11T04:53:47.184Z,103.7
2018-10-11T04:54:48.160Z,98.6
2018-10-11T04:55:48.886Z,108.2
2018-10-11T04:56:49.626Z,101.2
2018-10-11T04:57:50.410Z,104.4
2018-10-11T04:58:51.128Z,101.5
2018-10-11T04:59:51.925Z,100.9
2018-10-11T05:00:52.584Z,99.2
2018-10-11T05:01:53.552Z,97.3
2018-10-11T05:02:54.330Z,97.2
2018-10-11T05:03:55.044Z,97.2
2018-10-11T05:04:55.778Z,100.0
2018-10-11T05:05:56.504Z,98.8
2018-10-11T05:06:57.492Z,112.2
2018-10-11T05:07:58.217Z,104.0
2018-10-11T05:08:58.942Z,100.4
2018-10-11T05:09:59.659Z,104.9
2018-10-11T05:11:00.631Z,99.2
2018-10-11T05:12:01.354Z,98.3
2018-10-11T05:13:02.389Z,99.6
2018-10-11T05:14:03.108Z,105.2
2018-10-11T05:15:03.823Z,104.3
2018-10-11T05:16:04.554Z,94.7
2018-10-11T05:17:05.271Z,99.7
2018-10-11T05:18:05.987Z,97.7
2018-10-11T05:19:06.707Z,105.1
2018-10-11T05:20:07.432Z,100.4
2018-10-11T05:21:08.148Z,98.1
2018-10-11T05:22:08.877Z,96.8
2018-10-11T05:23:09.640Z,103.4
2018-10-11T05:24:10.371Z,105.9
2018-10-11T05:25:11.107Z,106.1
2018-10-11T05:26:11.884Z,111.6
2018-10-11T05:27:12.821Z,109.6
2018-10-11T05:28:13.543Z,98.9
2018-10-11T05:29:14.270Z,110.8
2018-10-11T05:30:14.993Z,97.6
2018-10-11T05:31:15.968Z,107.9
2018-10-11T05:32:16.761Z,102.1
2018-10-11T05:33:17.481Z,98.2
2018-10-11T05:34:18.218Z,97.8
2018-10-11T05:35:19.280Z,102.1
2018-10-11T05:36:20.001Z,111.3
2018-10-11T05:37:20.729Z,109.8
2018-10-11T05:38:21.498Z,100.7
2018-10-11T05:39:22.159Z,100.9
2018-10-11T05:40:22.886Z,105.0
2018-10-11T05:41:23.605Z,106.9
2018-10-11T05:42:24.591Z,108.5
2018-10-11T05:43:25.311Z,113.2
2018-10-11T05:44:26.084Z,111.8
2018-10-11T05:45:26.752Z,116.8
2018-10-11T05:46:27.740Z,114.6
2018-10-11T05:47:28.451Z,118.2
2018-10-11T05:48:29.467Z,118.0
2018-10-11T05:49:30.229Z,124.8
2018-10-11T05:50:31.019Z,121.5
2018-10-11T05:51:31.747Z,103.0
2018-10-11T05:52:32.461Z,126.4
2018-10-11T05:53:33.432Z,112.9
2018-10-11T05:54:34.153Z,110.4
2018-10-11T05:55:34.876Z,115.3
2018-10-11T05:56:35.619Z,116.0
2018-10-11T05:57:36.323Z,127.6
2018-10-11T05:58:37.060Z,119.0
2018-10-11T05:59:37.787Z,106.9
2018-10-11T06:00:38.571Z,238.5
2018-10-11T06:01:39.295Z,133.8
2018-10-11T06:02:40.032Z,121.1
2018-10-11T06:03:40.743Z,128.3
2018-10-11T06:04:41.483Z,133.0
2018-10-11T06:05:42.213Z,119.2
2018-10-11T06:06:43.007Z,124.5
2018-10-11T06:07:43.741Z,109.4
2018-10-11T06:08:44.469Z,123.5
2018-10-11T06:09:45.202Z,117.7
2018-10-11T06:10:45.919Z,114.2
2018-10-11T06:11:46.652Z,110.0
2018-10-11T06:12:47.371Z,123.2
2018-10-11T06:13:48.095Z,120.5
2018-10-11T06:14:48.826Z,124.8
2018-10-11T06:15:49.550Z,117.7
2018-10-11T06:16:50.348Z,103.8
2018-10-11T06:17:51.148Z,114.4
2018-10-11T06:18:51.800Z,111.3
2018-10-11T06:19:52.536Z,131.8
2018-10-11T06:20:53.265Z,115.4
2018-10-11T06:21:54.190Z,110.6
2018-10-11T06:22:54.917Z,113.9
2018-10-11T06:23:55.645Z,108.9
2018-10-11T06:24:56.428Z,108.8
2018-10-11T06:25:57.096Z,106.2
2018-10-11T06:26:57.831Z,119.2
2018-10-11T06:27:58.611Z,110.7
2018-10-11T06:28:59.327Z,106.3
2018-10-11T06:30:00.208Z,101.5
2018-10-11T06:31:01.101Z,107.2
2018-10-11T06:32:02.196Z,110.3
2018-10-11T06:33:03.007Z,110.2
2018-10-11T06:34:04.934Z,104.9
2018-10-11T06:35:06.514Z,120.6
2018-10-11T06:36:07.603Z,116.0
2018-10-11T06:37:08.771Z,100.7
2018-10-11T06:38:09.992Z,104.6
2018-10-11T06:39:11.070Z,115.6
2018-10-11T06:40:12.101Z,100.3
2018-10-11T06:41:12.995Z,108.3
2018-10-11T06:42:13.833Z,112.4
2018-10-11T06:43:14.522Z,103.6
2018-10-11T06:44:15.255Z,101.4
2018-10-11T06:45:15.979Z,101.1
2018-10-11T06:46:16.718Z,109.2
2018-10-11T06:47:17.433Z,101.3
2018-10-11T06:48:18.165Z,93.9
2018-10-11T06:49:19.182Z,96.7
2018-10-11T06:50:19.923Z,100.9
2018-10-11T06:51:20.634Z,95.2
2018-10-11T06:52:21.366Z,99.6
2018-10-11T06:53:22.090Z,132.5
2018-10-11T06:54:22.814Z,113.5
2018-10-11T06:55:23.585Z,99.0
2018-10-11T06:56:24.333Z,88.4
2018-10-11T06:57:25.303Z,101.0
2018-10-11T06:58:26.021Z,100.1
2018-10-11T06:59:26.803Z,86.5
2018-10-11T07:00:27.527Z,109.3
2018-10-11T07:01:28.266Z,98.0
2018-10-11T07:02:28.996Z,102.0
2018-10-11T07:03:29.714Z,98.2
2018-10-11T07:04:30.472Z,85.4
2018-10-11T07:05:31.252Z,84.7
2018-10-11T07:06:31.973Z,82.6
2018-10-11T07:07:32.711Z,84.1
2018-10-11T07:08:33.424Z,81.2
2018-10-11T07:09:34.154Z,83.9
2018-10-11T07:10:34.881Z,85.9
2018-10-11T07:11:35.609Z,80.2
2018-10-11T07:12:36.599Z,87.7
2018-10-11T07:13:37.452Z,71.8
2018-10-11T07:14:38.182Z,72.5
2018-10-11T07:15:38.916Z,70.3
2018-10-11T07:16:39.659Z,65.8
2018-10-11T07:17:40.379Z,63.1
2018-10-11T07:18:41.317Z,57.3
2018-10-11T07:19:42.379Z,58.0
2018-10-11T07:20:43.101Z,58.5
2018-10-11T07:21:43.891Z,53.8
2018-10-11T07:22:44.609Z,47.5
2018-10-11T07:23:45.350Z,49.0
2018-10-11T07:24:46.081Z,45.7
2018-10-11T07:25:46.806Z,45.8
2018-10-11T07:26:47.567Z,42.4
2018-10-11T07:27:48.295Z,45.2
2018-10-11T07:28:49.022Z,39.5
2018-10-11T07:29:49.764Z,46.6
2018-10-11T07:30:50.478Z,41.9
2018-10-11T07:31:51.210Z,41.6
2018-10-11T07:32:51.937Z,45.0
2018-10-11T07:33:52.655Z,45.9
2018-10-11T07:34:53.416Z,36.6
2018-10-11T07:35:54.113Z,38.6
2018-10-11T07:36:54.844Z,34.1
2018-10-11T07:37:55.574Z,31.3
2018-10-11T07:38:56.309Z,30.9
2018-10-11T07:39:57.031Z,35.9
2018-10-11T07:40:57.772Z,31.0
2018-10-11T07:41:58.500Z,31.8
2018-10-11T07:42:59.224Z,30.5
2018-10-11T07:43:59.952Z,30.1
2018-10-11T07:45:00.679Z,28.5
2018-10-11T07:46:01.409Z,28.2
2018-10-11T07:47:02.214Z,34.5
2018-10-11T07:48:02.871Z,33.3
2018-10-11T07:49:03.599Z,30.4
2018-10-11T07:50:04.581Z,30.9
2018-10-11T07:51:05.309Z,36.0
2018-10-11T07:52:06.041Z,25.4
2018-10-11T07:53:07.043Z,28.2
2018-10-11T07:54:07.768Z,30.1
2018-10-11T07:55:08.543Z,30.2
2018-10-11T07:56:09.277Z,31.7
2018-10-11T07:57:09.999Z,21.6
2018-10-11T07:58:10.741Z,29.5
2018-10-11T07:59:11.466Z,27.4
2018-10-11T08:00:12.258Z,22.1
2018-10-11T08:01:13.021Z,25.6
2018-10-11T08:02:13.724Z,30.0
2018-10-11T08:03:14.462Z,17.7
2018-10-11T08:04:15.177Z,16.1
2018-10-11T08:05:15.930Z,17.8
2018-10-11T08:06:16.661Z,17.7
2018-10-11T08:07:17.472Z,15.6
2018-10-11T08:08:18.203Z,21.5
2018-10-11T08:09:18.857Z,16.6
2018-10-11T08:10:19.647Z,14.9
2018-10-11T08:11:20.468Z,17.9
2018-10-11T08:12:21.052Z,20.1
2018-10-11T08:13:21.828Z,18.9
2018-10-11T08:14:22.518Z,15.6
2018-10-11T08:15:23.299Z,23.0
2018-10-11T08:16:24.122Z,20.4
2018-10-11T08:17:25.060Z,17.3
2018-10-11T08:18:25.518Z,17.3
2018-10-11T08:19:26.967Z,16.7
2018-10-11T08:20:27.343Z,14.6
2018-10-11T08:21:28.077Z,18.3
2018-10-11T08:22:28.805Z,15.4
2018-10-11T08:23:29.525Z,21.3
2018-10-11T08:24:30.310Z,15.4
2018-10-11T08:25:31.369Z,17.2
2018-10-11T08:26:31.902Z,16.4
2018-10-11T08:27:32.516Z,22.0
2018-10-11T08:28:33.257Z,16.1
2018-10-11T08:29:33.993Z,13.8
2018-10-11T08:30:34.722Z,14.5
2018-10-11T08:31:35.545Z,17.0
2018-10-11T08:32:36.350Z,14.8
2018-10-11T08:33:36.986Z,14.2
2018-10-11T08:34:37.969Z,16.3
2018-10-11T08:35:38.705Z,22.3
2018-10-11T08:36:39.492Z,15.0
2018-10-11T08:37:40.303Z,18.9
2018-10-11T08:38:41.006Z,15.4
2018-10-11T08:39:41.692Z,14.8
2018-10-11T08:40:42.428Z,14.8
2018-10-11T08:41:43.167Z,14.9
2018-10-11T08:42:43.893Z,15.8
2018-10-11T08:43:44.660Z,14.7
2018-10-11T08:44:45.367Z,16.9
2018-10-11T08:45:46.109Z,15.9
2018-10-11T08:46:46.842Z,13.4
2018-10-11T08:47:47.582Z,14.4
2018-10-11T08:48:48.321Z,14.5
2018-10-11T08:49:49.096Z,14.2
2018-10-11T08:50:49.914Z,14.6
2018-10-11T08:51:50.571Z,14.3
2018-10-11T08:52:51.582Z,16.4
2018-10-11T08:53:52.306Z,17.6
2018-10-11T08:54:53.080Z,14.5
2018-10-11T08:55:53.792Z,19.5
2018-10-11T08:56:54.571Z,16.3
2018-10-11T08:57:55.315Z,15.6
2018-10-11T08:58:56.048Z,17.8
2018-10-11T08:59:56.800Z,13.7
2018-10-11T09:00:57.672Z,14.7
2018-10-11T09:01:58.445Z,13.9
2018-10-11T09:02:59.185Z,14.9
2018-10-11T09:04:00.014Z,14.6
2018-10-11T09:05:00.648Z,14.7
2018-10-11T09:06:01.389Z,16.0
2018-10-11T09:07:02.146Z,14.4
2018-10-11T09:08:02.888Z,14.3
2018-10-11T09:09:03.616Z,14.3
2018-10-11T09:10:04.351Z,15.2
2018-10-11T09:11:05.231Z,15.1
2018-10-11T09:12:05.880Z,15.1
2018-10-11T09:13:06.624Z,14.3
2018-10-11T09:14:07.354Z,14.5
2018-10-11T09:15:08.089Z,15.0
2018-10-11T09:16:08.842Z,14.6
2018-10-11T09:17:09.652Z,14.8
2018-10-11T09:18:10.400Z,17.2
2018-10-11T09:19:11.269Z,14.5
2018-10-11T09:20:12.085Z,13.6
2018-10-11T09:21:12.826Z,15.5
2018-10-11T09:22:13.571Z,15.4
2018-10-11T09:23:14.334Z,14.2
2018-10-11T09:24:15.101Z,18.4
2018-10-11T09:25:16.169Z,15.5
2018-10-11T09:26:16.581Z,15.5
2018-10-11T09:27:17.573Z,15.6
2018-10-11T09:28:18.310Z,15.3
2018-10-11T09:29:19.045Z,18.0
2018-10-11T09:30:19.796Z,14.3
2018-10-11T09:31:20.515Z,15.7
2018-10-11T09:32:21.261Z,14.6
2018-10-11T09:33:22.012Z,15.2
2018-10-11T09:34:22.734Z,15.5
2018-10-11T09:35:23.466Z,14.7
2018-10-11T09:36:24.308Z,15.0
2018-10-11T09:37:24.989Z,15.1
2018-10-11T09:38:25.734Z,15.5
2018-10-11T09:39:26.461Z,13.7
2018-10-11T09:40:27.211Z,17.2
2018-10-11T09:41:27.945Z,15.3
2018-10-11T09:42:28.684Z,13.3
2018-10-11T09:43:29.439Z,14.1
2018-10-11T09:44:30.175Z,14.4
2018-10-11T09:45:31.160Z,14.0
2018-10-11T09:46:31.899Z,19.7
2018-10-11T09:47:32.898Z,14.9
2018-10-11T09:48:33.637Z,14.8
2018-10-11T09:49:34.362Z,14.6
2018-10-11T09:50:35.102Z,14.0
2018-10-11T09:51:36.082Z,14.3
2018-10-11T09:52:36.830Z,14.3
2018-10-11T09:53:37.542Z,17.6
2018-10-11T09:54:38.337Z,16.2
2018-10-11T09:55:39.038Z,14.2
2018-10-11T09:56:39.828Z,13.7
2018-10-11T09:57:40.566Z,12.9
2018-10-11T09:58:41.298Z,14.0
2018-10-11T09:59:42.045Z,14.0
2018-10-11T10:00:42.781Z,14.6
2018-10-11T10:01:43.522Z,12.6
2018-10-11T10:02:44.251Z,14.4
2018-10-11T10:03:44.995Z,15.2
2018-10-11T10:04:45.737Z,14.8
2018-10-11T10:05:46.479Z,14.7
2018-10-11T10:06:47.270Z,17.0
2018-10-11T10:07:48.001Z,20.2
2018-10-11T10:08:48.738Z,16.1
2018-10-11T10:09:49.514Z,14.1
2018-10-11T10:10:50.223Z,14.1
2018-10-11T10:11:51.289Z,14.9
2018-10-11T10:12:51.690Z,13.6
2018-10-11T10:13:52.434Z,14.2
2018-10-11T10:14:53.172Z,16.6
2018-10-11T10:15:53.913Z,16.6
2018-10-11T10:16:54.645Z,14.8
2018-10-11T10:17:55.386Z,13.9
2018-10-11T10:18:56.133Z,14.6
2018-10-11T10:19:56.864Z,14.8
2018-10-11T10:20:57.597Z,18.9
2018-10-11T10:21:58.340Z,14.4
2018-10-11T10:22:59.074Z,14.5
2018-10-11T10:23:59.816Z,14.0
2018-10-11T10:25:00.560Z,14.1
2018-10-11T10:26:01.313Z,14.9
2018-10-11T10:27:02.316Z,14.0
2018-10-11T10:28:03.028Z,13.5
2018-10-11T10:29:03.772Z,15.5
2018-10-11T10:30:04.502Z,14.4
2018-10-11T10:31:05.241Z,22.9
2018-10-11T10:32:05.978Z,15.1
2018-10-11T10:33:06.720Z,14.0
2018-10-11T10:34:07.485Z,13.6
2018-10-11T10:35:08.199Z,14.4
2018-10-11T10:36:08.991Z,14.4
2018-10-11T10:37:09.977Z,14.1
2018-10-11T10:38:10.712Z,14.6
2018-10-11T10:39:11.455Z,14.0
2018-10-11T10:40:12.201Z,13.2
2018-10-11T10:41:12.942Z,14.7
2018-10-11T10:42:13.680Z,13.3
2018-10-11T10:43:14.422Z,15.1
2018-10-11T10:44:15.147Z,14.4
2018-10-11T10:45:15.895Z,12.9
2018-10-11T10:46:16.679Z,13.2
2018-10-11T10:47:17.425Z,14.1
2018-10-11T10:48:18.167Z,14.7
2018-10-11T10:49:18.917Z,13.5
2018-10-11T10:50:19.649Z,13.1
2018-10-11T10:51:20.431Z,12.8
2018-10-11T10:52:21.155Z,14.4
2018-10-11T10:53:22.077Z,13.5
2018-10-11T10:54:23.168Z,13.6
2018-10-11T10:55:23.859Z,13.5
2018-10-11T10:56:24.802Z,12.3
2018-10-11T10:57:25.539Z,18.4
2018-10-11T10:58:26.291Z,14.2
2018-10-11T10:59:27.426Z,17.1
2018-10-11T11:00:28.179Z,13.9
2018-10-11T11:01:29.175Z,15.0
2018-10-11T11:02:30.288Z,13.8
2018-10-11T11:03:31.152Z,13.4
2018-10-11T11:04:31.896Z,13.8
2018-10-11T11:05:32.924Z,15.7
2018-10-11T11:06:33.706Z,14.1
2018-10-11T11:07:34.455Z,16.4
2018-10-11T11:08:35.199Z,16.8
2018-10-11T11:09:35.921Z,14.4
2018-10-11T11:10:36.659Z,14.7
2018-10-11T11:11:37.397Z,14.2
2018-10-11T11:12:38.129Z,14.2
2018-10-11T11:13:38.871Z,17.0
2018-10-11T11:14:39.655Z,15.2
2018-10-11T11:15:40.774Z,14.2
2018-10-11T11:16:41.513Z,14.5
2018-10-11T11:17:42.632Z,14.4
2018-10-11T11:18:43.385Z,13.8
2018-10-11T11:19:44.573Z,13.4
2018-10-11T11:20:45.300Z,14.1
2018-10-11T11:21:46.033Z,13.4
2018-10-11T11:22:46.776Z,14.2
2018-10-11T11:23:47.510Z,13.1
2018-10-11T11:24:48.489Z,13.3
2018-10-11T11:25:49.490Z,13.1
2018-10-11T11:26:50.229Z,16.0
2018-10-11T11:27:50.976Z,14.4
2018-10-11T11:28:51.704Z,13.9
2018-10-11T11:29:52.449Z,14.8
2018-10-11T11:30:53.461Z,16.2
2018-10-11T11:31:54.233Z,13.5
2018-10-11T11:32:54.955Z,12.8
2018-10-11T11:33:55.746Z,14.1
2018-10-11T11:34:56.490Z,13.5
2018-10-11T11:35:57.228Z,13.2
2018-10-11T11:36:57.962Z,14.1
2018-10-11T11:37:58.694Z,13.1
2018-10-11T11:38:59.475Z,12.9
2018-10-11T11:40:00.275Z,15.2
2018-10-11T11:41:00.947Z,14.8
2018-10-11T11:42:01.937Z,13.6
2018-10-11T11:43:02.671Z,12.7
2018-10-11T11:44:03.404Z,13.4
2018-10-11T11:45:04.144Z,14.5
2018-10-11T11:46:04.895Z,12.1
2018-10-11T11:47:05.622Z,13.4
2018-10-11T11:48:06.357Z,13.2
2018-10-11T11:49:07.150Z,13.3
2018-10-11T11:50:07.874Z,13.4
2018-10-11T11:51:08.619Z,12.1
2018-10-11T11:52:09.416Z,13.1
2018-10-11T11:53:10.094Z,12.7
2018-10-11T11:54:10.828Z,13.6
2018-10-11T11:55:11.563Z,12.9
2018-10-11T11:56:12.308Z,12.3
2018-10-11T11:57:13.051Z,13.3
2018-10-11T11:58:13.812Z,12.4
2018-10-11T11:59:14.560Z,12.4
2018-10-11T12:00:15.297Z,15.9
2018-10-11T12:01:16.041Z,13.2
2018-10-11T12:02:16.793Z,12.9
2018-10-11T12:03:17.510Z,13.2
2018-10-11T12:04:18.550Z,12.3
2018-10-11T12:05:19.299Z,12.2
2018-10-11T12:06:20.049Z,14.5
2018-10-11T12:07:20.778Z,12.4
2018-10-11T12:08:21.513Z,12.5
2018-10-11T12:09:22.520Z,12.9
2018-10-11T12:10:23.568Z,12.4
2018-10-11T12:11:24.305Z,12.4
2018-10-11T12:12:25.036Z,12.2
2018-10-11T12:13:25.798Z,12.8
2018-10-11T12:14:26.528Z,13.9
2018-10-11T12:15:27.271Z,12.1
2018-10-11T12:16:28.081Z,11.9
2018-10-11T12:17:28.811Z,12.2
2018-10-11T12:18:29.814Z,13.5
2018-10-11T12:19:30.549Z,12.3
2018-10-11T12:20:31.277Z,12.8
2018-10-11T12:21:32.011Z,13.1
2018-10-11T12:22:32.800Z,12.7
2018-10-11T12:23:33.537Z,13.2
2018-10-11T12:24:34.277Z,12.5
2018-10-11T12:25:35.275Z,13.1
2018-10-11T12:26:36.027Z,13.1
2018-10-11T12:27:36.762Z,13.9
2018-10-11T12:28:37.627Z,14.1
2018-10-11T12:29:38.244Z,12.6
2018-10-11T12:30:38.989Z,11.8
2018-10-11T12:31:39.730Z,15.8
2018-10-11T12:32:40.475Z,12.6
2018-10-11T12:33:41.216Z,11.0
2018-10-11T12:34:41.951Z,13.0
2018-10-11T12:35:42.940Z,12.5
2018-10-11T12:36:43.931Z,11.5
2018-10-11T12:37:44.980Z,12.2
2018-10-11T12:38:45.815Z,13.6
2018-10-11T12:39:46.396Z,12.0
2018-10-11T12:40:47.150Z,11.8
2018-10-11T12:41:48.133Z,12.1
2018-10-11T12:42:48.882Z,11.8
2018-10-11T12:43:49.626Z,12.0
2018-10-11T12:44:50.372Z,12.0
2018-10-11T12:45:51.111Z,12.9
2018-10-11T12:46:51.861Z,13.2
2018-10-11T12:47:52.613Z,12.7
2018-10-11T12:48:53.351Z,13.7
2018-10-11T12:49:54.121Z,14.7
2018-10-11T12:50:54.825Z,13.8
2018-10-11T12:51:55.602Z,15.9
2018-10-11T12:52:56.299Z,12.6
2018-10-11T12:53:57.024Z,13.8
2018-10-11T12:54:57.808Z,14.1
2018-10-11T12:55:58.502Z,13.8
2018-10-11T12:56:59.325Z,13.0
2018-10-11T12:57:59.984Z,14.0
2018-10-11T12:59:00.717Z,13.8
2018-10-11T13:00:01.451Z,13.5
2018-10-11T13:01:02.235Z,13.8
2018-10-11T13:02:02.933Z,13.3
2018-10-11T13:03:03.784Z,14.2
2018-10-11T13:04:04.725Z,13.5
2018-10-11T13:05:05.456Z,13.1
2018-10-11T13:06:06.202Z,12.1
2018-10-11T13:07:06.945Z,13.3
2018-10-11T13:08:07.928Z,14.8
2018-10-11T13:09:08.690Z,13.6
2018-10-11T13:10:09.422Z,13.4
2018-10-11T13:11:10.151Z,17.5
2018-10-11T13:12:10.894Z,12.1
2018-10-11T13:13:11.632Z,13.2
2018-10-11T13:14:12.373Z,12.9
2018-10-11T13:15:13.103Z,13.1
2018-10-11T13:16:13.843Z,13.1
2018-10-11T13:17:14.569Z,13.7
2018-10-11T13:18:15.351Z,15.2
2018-10-11T13:19:16.085Z,13.3
2018-10-11T13:20:16.833Z,13.1
2018-10-11T13:21:17.570Z,12.8
2018-10-11T13:22:18.318Z,14.0
2018-10-11T13:23:19.316Z,13.3
2018-10-11T13:24:20.303Z,13.0